createdAt,value
2018-09-16T00:00:32.052Z,4.60
2018-09-16T00:03:00.190Z,4.50
2018-09-16T00:05:28.323Z,4.13
2018-09-16T00:07:56.451Z,4.60
2018-09-16T00:10:24.614Z,4.13
2018-09-16T00:12:53.004Z,4.60
2018-09-16T00:15:21.139Z,5.00
2018-09-16T00:17:49.268Z,4.57
2018-09-16T00:20:17.406Z,4.50
2018-09-16T00:22:45.533Z,4.60
2018-09-16T00:25:13.658Z,4.40
2018-09-16T00:27:41.900Z,4.70
2018-09-16T00:30:10.048Z,4.70
2018-09-16T00:32:43.485Z,4.67
2018-09-16T00:35:12.190Z,4.40
2018-09-16T00:37:40.320Z,4.47
2018-09-16T00:40:08.464Z,4.90
2018-09-16T00:42:36.584Z,4.93
2018-09-16T00:45:04.808Z,5.03
2018-09-16T00:47:32.923Z,4.80
2018-09-16T00:50:01.069Z,4.97
2018-09-16T00:52:29.183Z,4.80
2018-09-16T00:54:57.319Z,5.17
2018-09-16T00:57:25.500Z,4.83
2018-09-16T00:59:53.639Z,4.90
2018-09-16T01:02:21.756Z,5.20
2018-09-16T01:04:49.895Z,5.23
2018-09-16T01:07:18.023Z,5.57
2018-09-16T01:09:46.165Z,5.20
2018-09-16T01:12:14.289Z,5.43
2018-09-16T01:14:42.438Z,5.80
2018-09-16T01:17:10.561Z,5.37
2018-09-16T01:19:39.556Z,5.13
2018-09-16T01:22:07.748Z,5.27
2018-09-16T01:24:35.878Z,4.93
2018-09-16T01:27:04.015Z,5.37
2018-09-16T01:29:32.172Z,5.00
2018-09-16T01:32:00.298Z,5.90
2018-09-16T01:34:28.447Z,5.13
2018-09-16T01:36:56.587Z,5.43
2018-09-16T01:39:27.188Z,5.23
2018-09-16T01:41:55.663Z,5.70
2018-09-16T01:44:23.814Z,5.60
2018-09-16T01:46:51.947Z,5.27
2018-09-16T01:49:20.058Z,5.97
2018-09-16T01:51:48.183Z,6.17
2018-09-16T01:54:16.338Z,5.93
2018-09-16T01:56:44.464Z,5.93
2018-09-16T01:59:12.587Z,6.40
2018-09-16T02:01:40.717Z,6.07
2018-09-16T02:04:08.834Z,5.93
2018-09-16T02:06:36.959Z,6.53
2018-09-16T02:09:06.839Z,6.33
2018-09-16T02:11:35.045Z,6.30
2018-09-16T02:14:03.167Z,6.07
2018-09-16T02:16:31.285Z,5.80
2018-09-16T02:18:59.402Z,5.10
2018-09-16T02:21:27.531Z,5.03
2018-09-16T02:23:55.658Z,5.60
2018-09-16T02:26:23.774Z,5.20
2018-09-16T02:28:51.922Z,5.50
2018-09-16T02:31:20.073Z,5.63
2018-09-16T02:33:48.206Z,5.80
2018-09-16T02:36:16.351Z,5.37
2018-09-16T02:38:44.476Z,5.77
2018-09-16T02:41:12.606Z,5.57
2018-09-16T02:43:40.741Z,5.57
2018-09-16T02:46:08.904Z,6.00
2018-09-16T02:48:37.061Z,5.50
2018-09-16T02:51:05.267Z,5.80
2018-09-16T02:53:33.379Z,5.77
2018-09-16T02:56:01.515Z,6.20
2018-09-16T02:58:29.641Z,5.97
2018-09-16T03:00:58.204Z,5.87
2018-09-16T03:03:26.423Z,6.00
2018-09-16T03:05:54.580Z,6.27
2018-09-16T03:08:22.708Z,6.80
2018-09-16T03:10:50.843Z,6.67
2018-09-16T03:13:19.079Z,6.77
2018-09-16T03:15:47.537Z,6.70
2018-09-16T03:18:15.711Z,6.37
2018-09-16T03:20:43.797Z,7.57
2018-09-16T03:23:11.932Z,7.10
2018-09-16T03:25:40.067Z,7.10
2018-09-16T03:28:08.191Z,7.43
2018-09-16T03:30:36.334Z,7.43
2018-09-16T03:33:04.449Z,6.93
2018-09-16T03:35:32.583Z,7.60
2018-09-16T03:38:00.698Z,7.53
2018-09-16T03:40:28.821Z,7.87
2018-09-16T03:42:56.949Z,7.77
2018-09-16T03:45:25.078Z,8.33
2018-09-16T03:47:53.222Z,8.27
2018-09-16T03:50:21.350Z,8.73
2018-09-16T03:52:49.478Z,9.70
2018-09-16T03:55:17.596Z,9.03
2018-09-16T03:57:45.724Z,9.40
2018-09-16T04:00:13.845Z,10.00
2018-09-16T04:02:41.981Z,11.23
2018-09-16T04:05:10.115Z,9.57
2018-09-16T04:07:38.258Z,9.13
2018-09-16T04:10:06.484Z,9.60
2018-09-16T04:12:34.615Z,9.43
2018-09-16T04:15:02.746Z,9.43
2018-09-16T04:17:30.896Z,9.97
2018-09-16T04:19:59.031Z,9.87
2018-09-16T04:22:27.157Z,8.70
2018-09-16T04:24:55.283Z,9.53
2018-09-16T04:27:23.415Z,9.43
2018-09-16T04:29:51.547Z,9.27
2018-09-16T04:32:19.679Z,9.27
2018-09-16T04:34:47.806Z,8.93
2018-09-16T04:37:15.936Z,8.63
2018-09-16T04:39:44.056Z,9.13
2018-09-16T04:42:12.194Z,8.77
2018-09-16T04:44:40.312Z,9.53
2018-09-16T04:47:08.453Z,9.63
2018-09-16T04:49:36.580Z,9.90
2018-09-16T04:52:04.720Z,9.03
2018-09-16T04:54:32.938Z,10.37
2018-09-16T04:57:01.127Z,9.80
2018-09-16T04:59:29.241Z,9.37
2018-09-16T05:01:57.375Z,10.53
2018-09-16T05:04:25.514Z,10.73
2018-09-16T05:06:53.634Z,10.73
2018-09-16T05:09:21.750Z,11.60
2018-09-16T05:11:49.881Z,11.87
2018-09-16T05:14:18.020Z,12.27
2018-09-16T05:16:46.194Z,11.93
2018-09-16T05:19:14.329Z,11.60
2018-09-16T05:21:42.483Z,10.43
2018-09-16T05:24:10.603Z,11.33
2018-09-16T05:26:38.752Z,11.50
2018-09-16T05:29:06.950Z,11.70
2018-09-16T05:31:35.126Z,12.40
2018-09-16T05:34:03.275Z,12.83
2018-09-16T05:36:31.459Z,14.97
2018-09-16T05:38:59.638Z,14.83
2018-09-16T05:41:27.791Z,14.10
2018-09-16T05:43:55.923Z,14.30
2018-09-16T05:46:24.099Z,14.70
2018-09-16T05:48:52.252Z,14.77
2018-09-16T05:51:20.416Z,14.97
2018-09-16T05:53:48.550Z,14.60
2018-09-16T05:56:16.796Z,14.23
2018-09-16T05:58:44.950Z,14.03
2018-09-16T06:01:13.283Z,15.00
2018-09-16T06:03:41.482Z,14.00
2018-09-16T06:06:09.650Z,13.90
2018-09-16T06:08:37.794Z,12.67
2018-09-16T06:11:06.478Z,13.03
2018-09-16T06:13:34.633Z,13.23
2018-09-16T06:16:02.780Z,13.37
2018-09-16T06:18:30.935Z,13.30
2018-09-16T06:20:59.096Z,13.20
2018-09-16T06:23:27.247Z,14.17
2018-09-16T06:25:55.403Z,14.53
2018-09-16T06:28:23.565Z,14.00
2018-09-16T06:30:51.726Z,14.37
2018-09-16T06:33:19.987Z,14.33
2018-09-16T06:35:48.162Z,13.50
2018-09-16T06:38:16.310Z,14.23
2018-09-16T06:40:44.444Z,14.90
2018-09-16T06:43:12.595Z,13.87
2018-09-16T06:45:40.722Z,13.93
2018-09-16T06:48:08.915Z,13.53
2018-09-16T06:50:37.055Z,12.37
2018-09-16T06:53:05.260Z,12.53
2018-09-16T06:55:33.367Z,12.43
2018-09-16T06:58:01.535Z,11.80
2018-09-16T07:00:29.690Z,11.43
2018-09-16T07:02:57.836Z,10.63
2018-09-16T07:05:25.970Z,11.17
2018-09-16T07:07:54.158Z,10.93
2018-09-16T07:11:25.554Z,10.20
2018-09-16T07:13:53.703Z,10.40
2018-09-16T07:16:21.843Z,10.07
2018-09-16T07:18:49.995Z,10.83
2018-09-16T07:21:18.146Z,11.00
2018-09-16T07:23:46.292Z,10.00
2018-09-16T07:26:14.440Z,10.50
2018-09-16T07:28:42.591Z,8.97
2018-09-16T07:31:10.741Z,9.07
2018-09-16T07:33:38.919Z,8.27
2018-09-16T07:36:07.101Z,8.23
2018-09-16T07:38:35.192Z,7.03
2018-09-16T07:41:03.344Z,7.63
2018-09-16T07:43:31.472Z,7.77
2018-09-16T07:45:59.602Z,7.63
2018-09-16T07:48:27.853Z,8.27
2018-09-16T07:50:55.967Z,9.07
2018-09-16T07:53:24.202Z,7.77
2018-09-16T07:55:52.263Z,8.53
2018-09-16T07:58:20.391Z,8.80
2018-09-16T08:00:48.595Z,8.87
2018-09-16T08:03:16.723Z,8.73
2018-09-16T08:05:44.845Z,9.57
2018-09-16T08:08:13.826Z,9.53
2018-09-16T08:10:41.957Z,8.80
2018-09-16T08:13:10.083Z,8.77
2018-09-16T08:15:38.258Z,10.43
2018-09-16T08:18:06.440Z,10.27
2018-09-16T08:20:34.603Z,10.47
2018-09-16T08:25:35.270Z,11.77
2018-09-16T08:28:03.431Z,12.10
2018-09-16T08:30:31.608Z,11.83
2018-09-16T08:32:59.766Z,11.63
2018-09-16T08:35:28.665Z,11.70
2018-09-16T08:37:56.835Z,11.37
2018-09-16T08:40:24.953Z,10.17
2018-09-16T08:42:53.191Z,8.77
2018-09-16T08:45:21.327Z,8.73
2018-09-16T08:47:56.139Z,8.20
2018-09-16T08:50:24.283Z,7.40
2018-09-16T08:52:52.432Z,7.30
2018-09-16T08:55:20.631Z,7.20
2018-09-16T08:57:48.771Z,6.87
2018-09-16T09:00:16.918Z,6.27
2018-09-16T09:02:45.075Z,5.77
2018-09-16T09:05:13.194Z,5.70
2018-09-16T09:07:41.373Z,5.57
2018-09-16T09:10:09.508Z,5.90
2018-09-16T09:12:37.646Z,6.00
2018-09-16T09:15:06.035Z,5.77
2018-09-16T09:17:34.483Z,5.60
2018-09-16T09:20:02.648Z,5.00
2018-09-16T09:22:30.771Z,5.10
2018-09-16T09:24:58.923Z,4.80
2018-09-16T09:27:27.059Z,4.30
2018-09-16T09:29:55.222Z,4.20
2018-09-16T09:32:23.376Z,4.60
2018-09-16T09:34:51.506Z,4.53
2018-09-16T09:37:26.293Z,4.27
2018-09-16T09:39:54.600Z,3.40
2018-09-16T09:42:22.729Z,3.60
2018-09-16T09:44:51.130Z,3.97
2018-09-16T09:47:19.317Z,3.67
2018-09-16T09:49:47.445Z,3.30
2018-09-16T09:52:15.635Z,3.67
2018-09-16T09:54:43.806Z,2.97
2018-09-16T09:57:11.968Z,3.53
2018-09-16T09:59:40.118Z,3.60
2018-09-16T10:02:08.452Z,2.90
2018-09-16T10:04:36.595Z,2.90
2018-09-16T10:07:04.868Z,2.80
2018-09-16T10:09:32.995Z,3.00
2018-09-16T10:12:01.198Z,2.70
2018-09-16T10:14:29.477Z,2.60
2018-09-16T10:16:57.576Z,2.60
2018-09-16T10:19:25.710Z,3.00
2018-09-16T10:21:53.887Z,3.47
2018-09-16T10:24:22.092Z,2.97
2018-09-16T10:26:50.276Z,2.90
2018-09-16T10:29:18.403Z,2.40
2018-09-16T10:31:46.526Z,2.93
2018-09-16T10:34:14.670Z,2.93
2018-09-16T10:36:42.794Z,2.60
2018-09-16T10:39:11.909Z,2.80
2018-09-16T10:41:40.048Z,2.30
2018-09-16T10:44:08.418Z,2.47
2018-09-16T10:46:36.671Z,2.53
2018-09-16T10:49:04.804Z,2.80
2018-09-16T10:51:32.915Z,2.83
2018-09-16T10:54:01.065Z,2.40
2018-09-16T10:56:29.178Z,2.00
2018-09-16T10:58:57.311Z,1.70
2018-09-16T11:01:25.472Z,1.87
2018-09-16T11:03:53.627Z,2.27
2018-09-16T11:06:21.761Z,1.97
2018-09-16T11:08:49.927Z,1.80
2018-09-16T11:11:18.080Z,1.98
2018-09-16T11:13:46.211Z,2.00
2018-09-16T11:16:14.876Z,2.00
2018-09-16T11:18:43.007Z,2.20
2018-09-16T11:21:11.147Z,2.10
2018-09-16T11:23:39.258Z,2.20
2018-09-16T11:26:07.415Z,2.33
2018-09-16T11:28:35.537Z,1.83
2018-09-16T11:31:03.691Z,2.53
2018-09-16T11:33:31.835Z,2.47
2018-09-16T11:35:59.974Z,2.73
2018-09-16T11:38:28.182Z,2.40
2018-09-16T11:40:56.624Z,2.10
2018-09-16T11:43:24.750Z,2.30
2018-09-16T11:45:52.894Z,2.27
2018-09-16T11:48:21.040Z,2.30
2018-09-16T11:50:49.176Z,2.50
2018-09-16T11:53:17.311Z,2.50
2018-09-16T11:55:45.458Z,2.72
2018-09-16T11:58:13.609Z,2.87
2018-09-16T12:00:41.746Z,2.80
2018-09-16T12:03:09.882Z,2.50
2018-09-16T12:05:38.036Z,2.02
2018-09-16T12:08:06.174Z,1.98
2018-09-16T12:10:34.437Z,1.90
2018-09-16T12:13:02.572Z,1.95
2018-09-16T12:15:30.758Z,1.85
2018-09-16T12:17:58.915Z,2.00
2018-09-16T12:20:27.161Z,2.00
2018-09-16T12:22:55.388Z,2.10
2018-09-16T12:25:23.525Z,1.75
2018-09-16T12:27:52.962Z,1.85
2018-09-16T12:30:21.488Z,1.75
2018-09-16T12:32:56.266Z,2.08
2018-09-16T12:35:24.387Z,1.90
2018-09-16T12:37:52.534Z,1.80
2018-09-16T12:40:21.015Z,1.75
2018-09-16T12:42:49.279Z,1.87
2018-09-16T12:45:17.441Z,1.87
2018-09-16T12:47:45.629Z,1.70
2018-09-16T12:50:13.791Z,1.53
2018-09-16T12:52:41.966Z,1.73
2018-09-16T12:55:10.099Z,1.70
2018-09-16T12:57:38.262Z,1.65
2018-09-16T13:00:06.414Z,2.02
2018-09-16T13:02:34.720Z,1.42
2018-09-16T13:05:02.894Z,1.90
2018-09-16T13:07:31.654Z,1.87
2018-09-16T13:09:59.854Z,1.77
2018-09-16T13:12:28.002Z,1.70
2018-09-16T13:14:56.134Z,1.50
2018-09-16T13:17:24.291Z,1.67
2018-09-16T13:19:53.799Z,1.50
2018-09-16T13:22:21.990Z,1.70
2018-09-16T13:24:50.124Z,1.72
2018-09-16T13:27:18.284Z,1.80
2018-09-16T13:29:46.599Z,1.90
2018-09-16T13:32:14.740Z,1.70
2018-09-16T13:34:43.099Z,1.67
2018-09-16T13:37:11.234Z,1.55
2018-09-16T13:39:39.352Z,1.90
2018-09-16T13:42:07.487Z,1.67
2018-09-16T13:44:35.631Z,1.72
2018-09-16T13:47:03.771Z,1.92
2018-09-16T13:49:31.880Z,1.60
2018-09-16T13:52:00.011Z,1.50
2018-09-16T13:54:28.133Z,1.70
2018-09-16T13:56:56.251Z,1.80
2018-09-16T13:59:24.387Z,1.80
2018-09-16T14:01:52.491Z,1.50
2018-09-16T14:04:20.625Z,1.60
2018-09-16T14:06:48.760Z,1.70
2018-09-16T14:09:16.934Z,1.50
2018-09-16T14:11:45.067Z,1.50
2018-09-16T14:14:13.221Z,1.57
2018-09-16T14:16:41.324Z,1.57
2018-09-16T14:19:09.875Z,1.30
2018-09-16T14:21:37.995Z,1.35
2018-09-16T14:24:06.148Z,1.57
2018-09-16T14:26:34.266Z,1.43
2018-09-16T14:29:02.441Z,1.50
2018-09-16T14:31:30.570Z,1.60
2018-09-16T14:33:58.711Z,1.50
2018-09-16T14:36:27.034Z,1.47
2018-09-16T14:38:55.176Z,1.57
2018-09-16T14:41:23.331Z,1.40
2018-09-16T14:43:51.518Z,1.40
2018-09-16T14:46:19.706Z,1.40
2018-09-16T14:48:48.118Z,1.37
2018-09-16T14:51:16.287Z,1.50
2018-09-16T14:53:44.435Z,1.43
2018-09-16T14:56:12.562Z,1.40
2018-09-16T14:58:40.702Z,1.53
2018-09-16T15:01:08.823Z,1.03
2018-09-16T15:03:37.001Z,1.40
2018-09-16T15:06:05.218Z,1.53
2018-09-16T15:08:33.738Z,1.30
2018-09-16T15:11:01.874Z,1.50
2018-09-16T15:13:30.023Z,1.40
2018-09-16T15:15:58.160Z,1.33
2018-09-16T15:18:26.291Z,1.30
2018-09-16T15:20:58.679Z,1.47
2018-09-16T15:23:26.825Z,1.30
2018-09-16T15:25:54.958Z,1.40
2018-09-16T15:28:23.096Z,1.20
2018-09-16T15:30:51.227Z,1.33
2018-09-16T15:33:19.361Z,1.40
2018-09-16T15:35:47.498Z,1.27
2018-09-16T15:38:15.630Z,1.33
2018-09-16T15:40:43.758Z,1.50
2018-09-16T15:43:11.879Z,1.30
2018-09-16T15:45:40.030Z,1.27
2018-09-16T15:48:08.255Z,1.50
2018-09-16T15:50:36.385Z,1.30
2018-09-16T15:53:04.518Z,1.60
2018-09-16T15:55:32.738Z,1.20
2018-09-16T15:58:01.011Z,1.60
2018-09-16T16:00:29.143Z,1.53
2018-09-16T16:02:57.263Z,1.70
2018-09-16T16:05:25.410Z,1.50
2018-09-16T16:07:53.555Z,1.40
2018-09-16T16:10:21.696Z,1.53
2018-09-16T16:12:49.898Z,1.60
2018-09-16T16:15:18.052Z,15.07
2018-09-16T16:17:46.189Z,4.33
2018-09-16T16:20:14.351Z,5.60
2018-09-16T16:22:42.492Z,12.97
2018-09-16T16:25:10.705Z,6.70
2018-09-16T16:27:38.819Z,6.23
2018-09-16T16:30:07.527Z,2.73
2018-09-16T16:32:35.645Z,1.90
2018-09-16T16:35:03.766Z,1.20
2018-09-16T16:37:31.884Z,1.60
2018-09-16T16:40:00.052Z,1.50
2018-09-16T16:42:28.189Z,1.43
2018-09-16T16:44:56.314Z,1.30
2018-09-16T16:47:24.468Z,1.57
2018-09-16T16:49:52.605Z,1.50
2018-09-16T16:52:20.740Z,1.40
2018-09-16T16:54:48.871Z,1.40
2018-09-16T16:57:17.000Z,1.23
2018-09-16T16:59:45.124Z,1.30
2018-09-16T17:02:13.258Z,1.53
2018-09-16T17:04:41.404Z,1.30
2018-09-16T17:07:09.536Z,1.50
2018-09-16T17:09:37.662Z,1.40
2018-09-16T17:12:05.790Z,1.27
2018-09-16T17:14:33.919Z,1.40
2018-09-16T17:17:02.059Z,1.10
2018-09-16T17:19:30.177Z,1.33
2018-09-16T17:21:58.303Z,1.30
2018-09-16T17:24:26.434Z,1.13
2018-09-16T17:26:54.626Z,1.23
2018-09-16T17:29:22.763Z,1.70
2018-09-16T17:31:50.942Z,1.70
2018-09-16T17:34:19.148Z,1.10
2018-09-16T17:36:47.283Z,1.30
2018-09-16T17:39:15.419Z,1.20
2018-09-16T17:41:43.563Z,1.47
2018-09-16T17:44:11.805Z,1.50
2018-09-16T17:46:39.876Z,1.30
2018-09-16T17:49:08.002Z,1.30
2018-09-16T17:51:36.156Z,1.23
2018-09-16T17:54:04.378Z,1.50
2018-09-16T17:56:32.569Z,1.40
2018-09-16T17:59:00.708Z,1.30
2018-09-16T18:01:28.862Z,1.60
2018-09-16T18:03:56.992Z,1.40
2018-09-16T18:06:25.204Z,1.20
2018-09-16T18:08:53.342Z,1.20
2018-09-16T18:11:21.610Z,1.37
2018-09-16T18:13:49.769Z,1.30
2018-09-16T18:16:17.918Z,1.33
2018-09-16T18:18:46.063Z,1.20
2018-09-16T18:21:14.261Z,1.53
2018-09-16T18:23:42.494Z,1.53
2018-09-16T18:26:10.646Z,1.50
2018-09-16T18:28:38.828Z,1.53
2018-09-16T18:31:06.971Z,1.70
2018-09-16T18:33:35.105Z,1.63
2018-09-16T18:36:03.255Z,1.93
2018-09-16T18:38:31.382Z,1.70
2018-09-16T18:40:59.531Z,1.83
2018-09-16T18:43:27.718Z,1.60
2018-09-16T18:45:55.766Z,1.70
2018-09-16T18:48:23.887Z,1.83
2018-09-16T18:50:52.091Z,1.70
2018-09-16T18:53:20.175Z,1.90
2018-09-16T18:55:48.310Z,1.83
2018-09-16T18:58:16.426Z,1.80
2018-09-16T19:00:44.547Z,1.50
2018-09-16T19:03:12.701Z,1.60
2018-09-16T19:05:40.828Z,1.70
2018-09-16T19:08:08.956Z,1.50
2018-09-16T19:10:37.091Z,1.50
2018-09-16T19:13:05.791Z,1.90
2018-09-16T19:15:35.601Z,1.67
2018-09-16T19:18:03.796Z,1.60
2018-09-16T19:20:32.212Z,1.70
2018-09-16T19:23:00.340Z,1.67
2018-09-16T19:25:28.529Z,1.60
2018-09-16T19:27:56.652Z,1.70
2018-09-16T19:30:24.788Z,1.73
2018-09-16T19:32:52.909Z,1.43
2018-09-16T19:35:21.023Z,1.57
2018-09-16T19:37:49.147Z,1.73
2018-09-16T19:40:17.278Z,1.50
2018-09-16T19:42:45.409Z,1.50
2018-09-16T19:45:13.543Z,1.60
2018-09-16T19:47:41.683Z,1.80
2018-09-16T19:50:09.904Z,1.77
2018-09-16T19:52:38.051Z,1.67
2018-09-16T19:55:06.164Z,2.00
2018-09-16T19:57:34.302Z,1.73
2018-09-16T20:00:02.540Z,1.47
2018-09-16T20:02:30.622Z,1.80
2018-09-16T20:04:58.746Z,1.77
2018-09-16T20:07:26.875Z,2.30
2018-09-16T20:09:54.991Z,1.90
2018-09-16T20:12:23.133Z,1.87
2018-09-16T20:14:51.246Z,1.93
2018-09-16T20:17:19.390Z,1.60
2018-09-16T20:19:47.499Z,1.80
2018-09-16T20:22:15.631Z,1.50
2018-09-16T20:24:43.758Z,1.70
2018-09-16T20:27:11.895Z,1.73
2018-09-16T20:29:40.013Z,1.90
2018-09-16T20:32:08.170Z,1.93
2018-09-16T20:34:36.294Z,1.80
2018-09-16T20:37:04.461Z,1.90
2018-09-16T20:39:32.671Z,1.90
2018-09-16T20:42:00.892Z,1.70
2018-09-16T20:44:29.014Z,2.03
2018-09-16T20:46:57.134Z,1.80
2018-09-16T20:49:25.267Z,1.90
2018-09-16T20:51:53.394Z,1.80
2018-09-16T20:54:21.515Z,1.97
2018-09-16T20:56:49.630Z,1.87
2018-09-16T20:59:17.762Z,2.00
2018-09-16T21:01:45.886Z,2.03
2018-09-16T21:04:14.025Z,2.13
2018-09-16T21:06:42.226Z,2.10
2018-09-16T21:09:11.546Z,2.10
2018-09-16T21:11:39.666Z,2.10
2018-09-16T21:14:07.804Z,2.30
2018-09-16T21:16:35.941Z,1.83
2018-09-16T21:19:04.071Z,2.10
2018-09-16T21:21:32.175Z,2.33
2018-09-16T21:24:00.306Z,2.10
2018-09-16T21:26:28.609Z,2.20
2018-09-16T21:28:56.555Z,2.23
2018-09-16T21:31:24.675Z,2.40
2018-09-16T21:33:52.808Z,2.30
2018-09-16T21:36:20.907Z,2.10
2018-09-16T21:38:49.034Z,2.20
2018-09-16T21:41:17.172Z,2.10
2018-09-16T21:43:46.473Z,2.30
2018-09-16T21:46:14.710Z,2.30
2018-09-16T21:48:42.848Z,2.03
2018-09-16T21:51:10.985Z,2.10
2018-09-16T21:53:39.134Z,2.20
2018-09-16T21:56:07.287Z,2.50
2018-09-16T21:58:35.405Z,2.50
2018-09-16T22:01:03.524Z,2.13
2018-09-16T22:03:31.702Z,2.43
2018-09-16T22:05:59.811Z,2.60
2018-09-16T22:08:27.944Z,2.33
2018-09-16T22:10:56.059Z,2.60
2018-09-16T22:13:24.271Z,2.97
2018-09-16T22:15:52.330Z,2.63
2018-09-16T22:18:20.461Z,2.27
2018-09-16T22:20:48.570Z,2.40
2018-09-16T22:23:16.699Z,2.80
2018-09-16T22:25:44.842Z,2.67
2018-09-16T22:28:12.952Z,2.80
2018-09-16T22:30:41.103Z,2.43
2018-09-16T22:33:09.235Z,2.83
2018-09-16T22:35:37.379Z,2.40
2018-09-16T22:38:05.511Z,2.67
2018-09-16T22:40:33.655Z,3.10
2018-09-16T22:43:01.784Z,2.90
2018-09-16T22:45:29.911Z,2.70
2018-09-16T22:47:58.052Z,3.20
2018-09-16T22:50:26.182Z,3.20
2018-09-16T22:52:54.302Z,2.80
2018-09-16T22:55:22.460Z,3.10
2018-09-16T22:57:50.585Z,3.00
2018-09-16T23:00:18.776Z,3.40
2018-09-16T23:02:46.917Z,3.57
2018-09-16T23:05:15.045Z,3.73
2018-09-16T23:07:43.186Z,3.53
2018-09-16T23:10:11.322Z,3.73
2018-09-16T23:12:39.527Z,3.07
2018-09-16T23:15:07.667Z,3.50
2018-09-16T23:17:35.817Z,3.57
2018-09-16T23:20:03.973Z,3.53
2018-09-16T23:22:32.121Z,2.83
2018-09-16T23:25:00.263Z,3.30
2018-09-16T23:27:28.383Z,2.97
2018-09-16T23:29:56.525Z,3.20
2018-09-16T23:32:24.804Z,3.60
2018-09-16T23:34:52.934Z,3.47
2018-09-16T23:37:21.062Z,3.60
2018-09-16T23:39:49.202Z,3.37
2018-09-16T23:42:17.328Z,3.17
2018-09-16T23:44:45.458Z,3.20
2018-09-16T23:47:13.568Z,3.03
2018-09-16T23:49:41.698Z,3.27
2018-09-16T23:52:09.819Z,3.30
2018-09-16T23:54:37.939Z,3.30
2018-09-16T23:57:06.052Z,3.40
2018-09-16T23:59:34.187Z,3.83
